Portsmouth, New Hampshire
Current Conditions -  °F | °C
As of 11:58 AM on Sunday 21 Dec 2014 (Local Time) from KPSM Reporting Station
Overcast Overcast  
Wind Chill: 21°   Ceiling: 7000
Heat Index: 29°   Visibility: 10mi
Dew Point: 22°   Wind: 9mph
Humidity: 76%   Direction: 340°NNW
Pressure: 30.3"   Gusts: NA
Location:  43.07°N, 70.77°W
Report Text: KPSM 211658Z 34008KT 10SM FEW020 SCT040 OVC070 M02/M05 A3030 RMK AO2A SLP265 T10161054
Loading
Personal Weather Stations






























Interactive Weather Map New forecast layout! Learn more

10-Day Weather Forecast

Advertisements
Track Severe Weather on mobile